Time;durP1;ratioP1;P1;durP2;ratioP2;P2;SDS_P1;SDS_P2;PMS_P1;PMS_P2;Temp;Humidity;BMP_temperature;BMP_pressure;BME280_temperature;BME280_humidity;BME280_pressure;Samples;Min_cycle;Max_cycle;Signal;HPM_P1;HPM_P2
2022/05/31 00:01:36;;;;;;;19.53;17.53;;;;;;;16.82;84.07;100514.38;1634250;86;21802;-71
2022/05/31 00:04:04;;;;;;;19.17;16.50;;;;;;;16.86;84.31;100512.67;1606918;87;21802;-71
2022/05/31 00:06:31;;;;;;;16.50;14.77;;;;;;;16.91;84.51;100514.45;1612897;87;21840;-71
2022/05/31 00:08:59;;;;;;;14.53;13.03;;;;;;;16.93;84.60;100515.76;1604019;87;22292;-71
2022/05/31 00:11:27;;;;;;;15.33;13.83;;;;;;;16.94;84.65;100508.45;1607288;88;21121;-71
2022/05/31 00:13:55;;;;;;;16.80;14.70;;;;;;;16.93;84.69;100500.92;1629473;86;21929;-71
2022/05/31 00:16:23;;;;;;;14.97;13.43;;;;;;;16.87;84.87;100503.47;1608756;87;21842;-71
2022/05/31 00:18:52;;;;;;;15.83;14.23;;;;;;;16.83;85.09;100501.13;1609381;87;22546;-71
2022/05/31 00:21:19;;;;;;;13.43;12.03;;;;;;;16.82;85.14;100498.19;1609597;87;21847;-70
2022/05/31 00:23:46;;;;;;;13.53;12.23;;;;;;;16.79;85.07;100492.84;1609415;87;21121;-71
2022/05/31 00:26:13;;;;;;;13.40;12.03;;;;;;;16.76;85.10;100495.34;1610049;87;22269;-71
2022/05/31 00:28:40;;;;;;;12.07;10.83;;;;;;;16.72;85.24;100489.72;1599926;87;23161;-71
2022/05/31 00:31:08;;;;;;;13.60;12.20;;;;;;;16.63;85.45;100492.30;1632331;85;22341;-72
2022/05/31 00:33:36;;;;;;;13.70;12.27;;;;;;;16.63;85.45;100492.30;1629279;86;21129;-72
2022/05/31 00:36:03;;;;;;;14.27;12.83;;;;;;;16.60;85.60;100500.98;1628395;86;22166;-71
2022/05/31 00:38:31;;;;;;;12.83;11.57;;;;;;;16.57;85.61;100504.27;1598031;86;22440;-72
2022/05/31 00:41:24;;;;;;;13.13;11.73;;;;;;;16.61;85.49;100495.83;1629091;86;21742;-71
2022/05/31 00:43:57;;;;;;;;;;;;;;;16.61;85.37;100493.69;1631562;85;21821;-70
2022/05/31 00:46:23;;;;;;;16.05;12.73;;;;;;;16.58;85.43;100495.11;1626752;86;20247;-71
2022/05/31 00:48:57;;;;;;;13.73;12.33;;;;;;;16.57;85.54;100506.17;1598785;86;21144;-71
2022/05/31 00:51:42;;;;;;;13.10;11.90;;;;;;;16.55;85.54;100507.01;1585172;88;22251;-72
2022/05/31 00:54:17;;;;;;;12.53;11.23;;;;;;;16.54;85.52;100514.30;1628145;85;22256;-73
2022/05/31 00:56:46;;;;;;;13.20;11.77;;;;;;;16.52;85.56;100515.17;1607162;88;21816;-71
2022/05/31 00:59:24;;;;;;;12.93;10.93;;;;;;;16.50;85.50;100510.61;1599734;87;21913;-71
2022/05/31 01:01:54;;;;;;;13.10;11.80;;;;;;;16.48;85.32;100518.19;1610645;87;21860;-71
2022/05/31 01:04:31;;;;;;;11.93;10.70;;;;;;;16.44;85.05;100518.53;1612875;87;22316;-71
2022/05/31 01:06:59;;;;;;;13.57;12.17;;;;;;;16.39;84.94;100522.13;1600142;88;22981;-71
2022/05/31 01:09:27;;;;;;;12.80;11.50;;;;;;;16.38;84.98;100521.06;1626693;86;22265;-71
2022/05/31 01:12:13;;;;;;;13.60;12.27;;;;;;;16.38;85.00;100525.11;1629176;86;21842;-71
2022/05/31 01:14:59;;;;;;;14.37;12.87;;;;;;;16.34;84.98;100522.76;1628595;86;21830;-71
2022/05/31 01:17:45;;;;;;;14.10;12.70;;;;;;;16.31;85.05;100522.80;1610295;87;21805;-71
2022/05/31 01:20:27;;;;;;;;;;;;;;;16.31;85.09;100524.14;1606946;87;22619;-71
2022/05/31 01:23:03;;;;;;;15.10;13.60;;;;;;;16.33;85.18;100527.91;1628272;86;20490;-69
2022/05/31 01:25:48;;;;;;;15.70;14.10;;;;;;;16.33;85.36;100522.52;1606101;87;21915;-70
2022/05/31 01:28:33;;;;;;;15.90;14.30;;;;;;;16.36;85.52;100528.66;1635153;85;21849;-70
2022/05/31 01:31:15;;;;;;;18.03;14.70;;;;;;;16.39;85.69;100519.98;1597118;88;21895;-70
2022/05/31 01:34:04;;;;;;;18.30;14.40;;;;;;;16.44;85.85;100520.44;1577562;87;21912;-70
2022/05/31 01:36:36;;;;;;;20.07;16.07;;;;;;;16.46;85.84;100523.64;1629754;86;21587;-70
2022/05/31 01:39:18;;;;;;;21.37;11.53;;;;;;;16.48;85.92;100534.36;1601110;88;21826;-71
2022/05/31 01:41:53;;;;;;;42.85;14.10;;;;;;;16.50;86.08;100538.92;1631289;86;28959;-71
2022/05/31 01:44:22;;;;;;;28.50;13.13;;;;;;;16.50;86.25;100539.47;1604094;87;21060;-70
2022/05/31 01:46:49;;;;;;;20.03;12.53;;;;;;;16.50;86.37;100538.13;1633828;86;21769;-70
2022/05/31 01:49:17;;;;;;;19.43;13.27;;;;;;;16.51;86.45;100536.47;1632664;86;21816;-70
2022/05/31 01:51:44;;;;;;;18.70;13.23;;;;;;;16.54;86.48;100535.87;1605622;87;21862;-70
2022/05/31 01:54:11;;;;;;;14.30;12.80;;;;;;;16.54;86.51;100535.08;1629155;86;21898;-71
2022/05/31 01:56:39;;;;;;;14.27;12.87;;;;;;;16.54;86.51;100534.53;1627112;86;21794;-71
2022/05/31 01:59:07;;;;;;;13.50;12.20;;;;;;;16.55;86.53;100528.58;1586982;86;22586;-71
2022/05/31 02:01:35;;;;;;;14.87;13.47;;;;;;;16.56;86.56;100538.28;1600100;88;21778;-71
2022/05/31 02:04:03;;;;;;;15.03;13.63;;;;;;;16.57;86.58;100536.63;1637778;86;21881;-71
2022/05/31 02:06:34;;;;;;;13.70;12.40;;;;;;;16.59;86.61;100549.28;1611957;87;22338;-71
2022/05/31 02:09:03;;;;;;;13.60;12.33;;;;;;;16.61;86.61;100539.53;1628972;86;21873;-71
2022/05/31 02:11:32;;;;;;;12.70;11.50;;;;;;;16.60;86.51;100537.38;1601589;87;21136;-71
2022/05/31 02:14:02;;;;;;;12.27;11.07;;;;;;;16.58;86.45;100534.73;1607962;88;22410;-71
2022/05/31 02:16:30;;;;;;;11.70;10.67;;;;;;;16.54;86.35;100539.13;1629663;86;21846;-70
2022/05/31 02:19:23;;;;;;;10.37;9.37;;;;;;;16.51;86.27;100539.72;1604350;86;21766;-70
2022/05/31 02:21:53;;;;;;;11.83;10.77;;;;;;;16.49;86.17;100551.36;1621623;86;21757;-70
2022/05/31 02:24:21;;;;;;;12.50;11.30;;;;;;;16.45;86.17;100549.78;1607421;88;21845;-70
2022/05/31 02:26:48;;;;;;;12.47;11.33;;;;;;;16.47;86.20;100549.50;1629561;86;21134;-71
2022/05/31 02:29:18;;;;;;;13.03;11.73;;;;;;;16.50;86.20;100552.95;1595982;88;21566;-70
2022/05/31 02:31:46;;;;;;;11.93;10.80;;;;;;;16.52;86.11;100548.87;1626728;86;21839;-70
2022/05/31 02:34:15;;;;;;;13.33;12.13;;;;;;;16.53;86.05;100554.50;1629140;86;21658;-70
2022/05/31 02:36:42;;;;;;;13.20;11.93;;;;;;;16.54;85.99;100546.66;1591253;88;22415;-71
2022/05/31 02:39:09;;;;;;;13.50;12.20;;;;;;;16.53;85.96;100543.72;1629915;86;21802;-70
2022/05/31 02:41:39;;;;;;;13.57;12.27;;;;;;;16.53;85.91;100546.41;1639184;86;21857;-70
2022/05/31 02:44:06;;;;;;;14.23;12.77;;;;;;;16.55;85.98;100542.06;1628737;86;22968;-71
2022/05/31 02:46:34;;;;;;;12.97;11.37;;;;;;;16.58;86.13;100542.81;1609589;88;21086;-71
2022/05/31 02:49:04;;;;;;;14.07;11.70;;;;;;;16.62;86.27;100551.38;1637338;86;21802;-71
2022/05/31 02:51:36;;;;;;;14.50;13.00;;;;;;;16.69;86.30;100550.20;1604560;88;21789;-71
2022/05/31 02:54:04;;;;;;;13.58;12.23;;;;;;;16.77;86.28;100550.88;1629120;86;21897;-71
2022/05/31 02:56:33;;;;;;;13.97;12.57;;;;;;;16.73;86.67;100551.98;1610575;88;21592;-71
2022/05/31 02:59:17;;;;;;;14.33;12.40;;;;;;;16.78;86.84;100555.16;1536387;91;22000;-70
2022/05/31 03:02:03;;;;;;;11.60;10.50;;;;;;;17.06;86.21;100547.33;1615331;86;22226;-69
2022/05/31 03:04:49;;;;;;;12.97;11.37;;;;;;;17.06;86.21;100544.64;1600435;88;21076;-71
2022/05/31 03:07:35;;;;;;;11.70;10.60;;;;;;;17.11;85.54;100551.84;1628885;86;21533;-71
2022/05/31 03:10:09;;;;;;;10.77;9.70;;;;;;;17.17;85.22;100553.31;1630507;86;21212;-71
2022/05/31 03:12:38;;;;;;;9.97;8.87;;;;;;;17.21;84.77;100558.91;1627361;86;21092;-72
2022/05/31 03:15:14;;;;;;;13.30;11.17;;;;;;;17.24;84.28;100564.53;1628790;86;21302;-72
2022/05/31 03:17:48;;;;;;;12.33;10.27;;;;;;;17.27;83.79;100566.61;1607406;88;21804;-71
2022/05/31 03:20:38;;;;;;;12.33;10.90;;;;;;;17.32;83.44;100565.16;1603050;87;21663;-70
2022/05/31 03:23:11;;;;;;;11.20;10.03;;;;;;;17.37;83.13;100569.64;1629170;86;21038;-71
2022/05/31 03:25:38;;;;;;;12.57;10.87;;;;;;;17.42;82.72;100572.25;1596926;88;21165;-71
2022/05/31 03:28:06;;;;;;;12.50;10.73;;;;;;;17.46;82.51;100569.75;1634309;86;21870;-70
2022/05/31 03:30:36;;;;;;;11.43;10.23;;;;;;;17.51;82.26;100575.05;1606451;88;21147;-70
2022/05/31 03:33:06;;;;;;;11.90;10.70;;;;;;;17.56;81.98;100575.72;1573359;88;21062;-70
2022/05/31 03:35:33;;;;;;;11.60;10.40;;;;;;;17.61;81.74;100572.13;1614523;87;21208;-71
2022/05/31 03:38:02;;;;;;;12.57;11.27;;;;;;;17.67;81.59;100582.25;1608795;88;21617;-72
2022/05/31 03:43:30;;;;;;;12.47;10.67;;;;;;;17.80;81.34;100589.55;1611940;88;21123;-70
2022/05/31 03:46:16;;;;;;;12.47;11.00;;;;;;;17.82;81.10;100587.36;1597412;88;21105;-70
2022/05/31 03:48:44;;;;;;;12.93;11.63;;;;;;;17.83;80.95;100593.55;1614535;86;21514;-70
2022/05/31 03:51:12;;;;;;;12.17;11.07;;;;;;;17.82;80.86;100590.05;1599440;88;21041;-70
2022/05/31 03:53:39;;;;;;;12.70;11.23;;;;;;;17.82;80.78;100581.95;1627934;86;21664;-71
2022/05/31 03:56:10;;;;;;;13.13;11.23;;;;;;;17.83;80.74;100586.23;1630203;86;20989;-70
2022/05/31 03:58:38;;;;;;;11.55;10.40;;;;;;;17.83;80.65;100583.53;1600048;88;21088;-70
2022/05/31 04:01:12;;;;;;;11.90;10.00;;;;;;;17.84;80.42;100581.11;1609249;88;21076;-70
2022/05/31 04:03:41;;;;;;;11.50;10.30;;;;;;;17.83;80.25;100591.64;1629473;86;21131;-70
2022/05/31 04:06:11;;;;;;;11.10;9.35;;;;;;;17.83;80.07;100585.45;1601859;87;21061;-70
2022/05/31 04:08:38;;;;;;;11.40;10.30;;;;;;;17.86;79.82;100584.84;1609997;86;21183;-72
2022/05/31 04:11:05;;;;;;;11.63;9.63;;;;;;;17.89;79.52;100580.18;1627145;86;20989;-71
2022/05/31 04:13:33;;;;;;;10.37;9.33;;;;;;;17.94;79.46;100583.57;1627006;86;21080;-72
2022/05/31 04:16:18;;;;;;;10.70;9.60;;;;;;;17.99;79.21;100588.84;1628729;85;21124;-72
2022/05/31 04:18:48;;;;;;;12.00;10.80;;;;;;;18.03;78.85;100590.38;1616425;87;21243;-72
2022/05/31 04:21:17;;;;;;;11.83;10.23;;;;;;;18.05;78.53;100588.98;1628019;86;21013;-69
2022/05/31 04:23:58;;;;;;;12.20;10.07;;;;;;;18.10;78.40;100585.90;1599923;87;21088;-71
2022/05/31 04:26:29;;;;;;;11.93;10.73;;;;;;;18.15;78.28;100588.50;1594414;86;21189;-71
2022/05/31 04:29:15;;;;;;;10.70;9.60;;;;;;;18.22;78.14;100591.56;1604143;88;21133;-71
2022/05/31 04:32:01;;;;;;;11.03;10.03;;;;;;;18.29;77.65;100595.98;1629016;85;21856;-71
2022/05/31 04:34:30;;;;;;;10.30;9.30;;;;;;;18.35;77.29;100596.67;1598271;88;21153;-71
2022/05/31 04:36:57;;;;;;;11.00;9.57;;;;;;;18.41;77.01;100604.91;1629609;86;21065;-71
2022/05/31 04:39:27;;;;;;;10.53;9.53;;;;;;;18.45;76.53;100607.23;1608274;87;21499;-71
2022/05/31 04:41:55;;;;;;;11.67;10.50;;;;;;;18.46;75.90;100604.80;1628663;85;21109;-71
2022/05/31 04:44:25;;;;;;;9.90;8.90;;;;;;;18.48;75.72;100611.47;1599048;88;21731;-71
2022/05/31 04:46:53;;;;;;;10.17;9.23;;;;;;;18.55;75.45;100614.30;1629020;86;21101;-71
2022/05/31 04:49:25;;;;;;;11.17;9.97;;;;;;;18.59;75.17;100616.62;1617208;87;21131;-70
2022/05/31 04:51:52;;;;;;;10.53;9.53;;;;;;;18.63;74.75;100616.27;1630216;86;21121;-72
2022/05/31 04:54:23;;;;;;;10.73;9.63;;;;;;;18.66;74.65;100621.06;1614438;87;21504;-71
2022/05/31 04:57:07;;;;;;;12.80;11.00;;;;;;;18.70;74.53;100624.73;1633042;86;21250;-71
2022/05/31 04:59:36;;;;;;;11.83;10.73;;;;;;;18.77;74.66;100633.24;1619111;85;21453;-71
2022/05/31 05:02:04;;;;;;;14.67;11.53;;;;;;;18.82;74.82;100626.36;1634419;85;21090;-71
2022/05/31 05:04:45;;;;;;;12.88;11.57;;;;;;;18.89;74.95;100632.68;1593335;86;21422;-71
2022/05/31 05:07:14;;;;;;;12.17;10.97;;;;;;;18.94;74.92;100637.38;1627896;86;21619;-71
2022/05/31 05:09:41;;;;;;;14.00;11.57;;;;;;;18.97;74.93;100634.05;1627401;85;21096;-71
2022/05/31 05:12:25;;;;;;;13.10;11.70;;;;;;;19.01;74.86;100638.84;1626666;86;21140;-71
2022/05/31 05:14:55;;;;;;;12.20;11.03;;;;;;;19.04;74.74;100639.58;1626248;86;21074;-70
2022/05/31 05:17:25;;;;;;;13.60;11.57;;;;;;;19.05;74.60;100639.28;1626891;86;21187;-71
2022/05/31 05:19:52;;;;;;;11.47;10.43;;;;;;;19.06;74.50;100638.17;1626366;86;21135;-70
2022/05/31 05:22:19;;;;;;;12.07;10.77;;;;;;;19.07;74.31;100634.90;1633977;86;21565;-72
2022/05/31 05:24:46;;;;;;;10.83;9.57;;;;;;;19.08;74.30;100635.13;1632409;86;21101;-71
2022/05/31 05:27:32;;;;;;;10.80;9.67;;;;;;;19.05;73.84;100636.58;1628537;86;21615;-71
2022/05/31 05:32:53;;;;;;;11.57;10.37;;;;;;;19.03;73.62;100634.73;1631220;86;21025;-70
2022/05/31 05:35:27;;;;;;;12.10;10.77;;;;;;;19.04;73.50;100636.31;1626537;86;21247;-71
2022/05/31 05:37:59;;;;;;;12.65;10.80;;;;;;;19.09;73.27;100647.02;1628279;86;21093;-72
2022/05/31 05:40:28;;;;;;;12.03;10.90;;;;;;;19.14;73.03;100649.58;1625261;86;21076;-71
2022/05/31 05:42:57;;;;;;;12.10;10.90;;;;;;;19.20;72.93;100651.59;1632895;86;21141;-73
2022/05/31 05:45:39;;;;;;;12.37;11.17;;;;;;;19.26;72.56;100656.33;1595603;86;21611;-71
2022/05/31 05:48:07;;;;;;;12.93;11.73;;;;;;;19.27;72.18;100659.27;1634967;85;21338;-71
2022/05/31 05:50:35;;;;;;;13.73;12.33;;;;;;;19.27;72.15;100667.40;1633686;86;21123;-72
2022/05/31 05:53:07;;;;;;;;;;;;;;;19.26;71.92;100663.89;1632853;86;21033;-71
2022/05/31 05:55:44;;;;;;;14.70;13.20;;;;;;;19.25;72.03;100662.30;1633617;86;20188;-71
2022/05/31 05:58:32;;;;;;;13.27;12.03;;;;;;;19.27;71.89;100670.10;1626737;86;21045;-71
2022/05/31 06:01:47;;;;;;;13.37;12.10;;;;;;;19.28;71.62;100676.58;1626745;86;21646;-70
2022/05/31 06:04:39;;;;;;;12.87;11.03;;;;;;;19.29;71.32;100678.73;1625954;86;21148;-71
2022/05/31 06:07:23;;;;;;;12.13;11.03;;;;;;;19.31;71.32;100679.98;1626879;86;21096;-71
2022/05/31 06:10:02;;;;;;;12.17;11.07;;;;;;;19.40;71.31;100680.83;1606035;86;21131;-71
2022/05/31 06:12:35;;;;;;;12.70;11.40;;;;;;;19.48;70.83;100682.52;1610601;88;21089;-71
2022/05/31 06:15:06;;;;;;;13.20;12.00;;;;;;;19.49;70.47;100680.08;1599639;88;21134;-71
2022/05/31 06:17:38;;;;;;;13.73;12.43;;;;;;;19.45;70.22;100683.41;1629936;86;21673;-71
2022/05/31 06:20:08;;;;;;;12.07;10.97;;;;;;;19.41;70.19;100682.44;1629602;86;21091;-71
2022/05/31 06:22:39;;;;;;;14.50;12.20;;;;;;;19.36;70.13;100683.13;1579372;88;21057;-71
2022/05/31 06:25:14;;;;;;;13.60;12.20;;;;;;;19.30;70.35;100681.11;1631358;86;21489;-71
2022/05/31 06:28:00;;;;;;;14.43;12.93;;;;;;;19.30;70.62;100681.67;1597874;88;21582;-71
2022/05/31 06:30:28;;;;;;;14.33;12.83;;;;;;;19.30;70.76;100683.81;1628851;86;21069;-71
2022/05/31 06:32:56;;;;;;;14.50;12.27;;;;;;;19.28;70.80;100683.34;1599726;88;21073;-71
2022/05/31 06:35:25;;;;;;;13.87;12.13;;;;;;;19.27;70.72;100687.70;1607843;88;21138;-71
2022/05/31 06:38:03;;;;;;;13.40;12.10;;;;;;;19.24;70.79;100682.35;1629505;86;21060;-72
2022/05/31 06:40:30;;;;;;;11.67;10.57;;;;;;;19.23;71.00;100678.62;1599893;88;21287;-72
2022/05/31 06:43:00;;;;;;;14.37;12.23;;;;;;;19.26;71.02;100690.97;1632744;86;21061;-72
2022/05/31 06:45:46;;;;;;;13.37;12.07;;;;;;;19.26;71.08;100692.33;1595055;88;21566;-72
2022/05/31 06:48:31;;;;;;;14.17;12.77;;;;;;;19.28;71.12;100698.77;1626831;86;21033;-71
2022/05/31 06:51:09;;;;;;;12.43;11.23;;;;;;;19.27;71.14;100703.39;1591733;86;21024;-72
2022/05/31 06:56:49;;;;;;;13.97;12.60;;;;;;;19.20;71.01;100711.17;1593109;87;21085;-72
2022/05/31 06:59:24;;;;;;;12.77;11.57;;;;;;;19.14;71.20;100712.41;1617026;86;21033;-71
2022/05/31 07:01:53;;;;;;;12.90;11.60;;;;;;;19.10;71.40;100724.41;1609721;87;21077;-71
2022/05/31 07:04:20;;;;;;;13.60;12.20;;;;;;;19.06;71.41;100726.70;1601756;87;21593;-72
2022/05/31 07:06:47;;;;;;;14.50;13.07;;;;;;;19.01;71.50;100728.97;1638942;86;21205;-71
2022/05/31 07:09:29;;;;;;;15.80;14.40;;;;;;;18.94;71.63;100734.03;1557015;88;21178;-71
2022/05/31 07:11:58;;;;;;;15.63;14.13;;;;;;;18.87;71.76;100754.77;1629616;86;21834;-71
2022/05/31 07:14:44;;;;;;;17.90;16.20;;;;;;;18.80;71.86;100740.87;1603201;87;21159;-73
2022/05/31 07:17:12;;;;;;;17.53;15.87;;;;;;;18.75;71.86;100743.68;1608745;87;21081;-72
2022/05/31 07:19:45;;;;;;;19.97;17.97;;;;;;;18.69;72.08;100739.46;1610327;87;21301;-72
2022/05/31 07:22:12;;;;;;;23.27;20.97;;;;;;;18.67;72.31;100741.70;1605139;87;21127;-72
2022/05/31 07:24:39;;;;;;;27.07;24.20;;;;;;;18.65;72.82;100746.59;1629699;86;21478;-73
2022/05/31 07:27:15;;;;;;;23.83;21.33;;;;;;;18.63;73.34;100738.80;1626134;86;21128;-76
2022/05/31 07:29:42;;;;;;;23.07;20.73;;;;;;;18.58;73.82;100742.17;1612005;85;21886;-72
2022/05/31 07:32:09;;;;;;;20.47;18.60;;;;;;;18.51;74.17;100753.41;1627261;86;21299;-72
2022/05/31 07:34:37;;;;;;;20.03;18.00;;;;;;;18.44;74.40;100751.12;1628593;85;21058;-71
2022/05/31 07:37:04;;;;;;;20.20;18.30;;;;;;;18.39;74.70;100754.48;1596850;88;21316;-71
2022/05/31 07:39:31;;;;;;;21.43;19.43;;;;;;;18.36;75.01;100744.28;1633665;85;21060;-72
2022/05/31 07:41:59;;;;;;;20.17;18.23;;;;;;;18.36;75.23;100739.70;1629811;86;21136;-72
2022/05/31 07:44:26;;;;;;;19.20;17.27;;;;;;;18.39;75.48;100743.67;1628912;85;21104;-72
2022/05/31 07:46:54;;;;;;;19.23;17.23;;;;;;;18.43;75.66;100741.42;1627283;86;21150;-73
2022/05/31 07:49:22;;;;;;;18.07;15.83;;;;;;;18.50;75.70;100745.06;1629167;86;21124;-71
2022/05/31 07:51:57;;;;;;;16.77;15.27;;;;;;;18.56;75.67;100750.61;1626003;86;21095;-71
2022/05/31 07:54:42;;;;;;;16.07;14.47;;;;;;;18.63;75.45;100758.30;1626045;86;21108;-72
2022/05/31 07:58:30;;;;;;;18.43;15.53;;;;;;;18.68;75.23;100767.63;1626529;86;21966;-73
2022/05/31 07:59:52;;;;;;;19.27;17.47;;;;;;;18.67;74.81;100777.66;1550866;90;21620;-72
2022/05/31 08:02:30;;;;;;;23.37;21.03;;;;;;;18.68;74.34;100775.19;1626612;86;21666;-70
2022/05/31 08:04:57;;;;;;;22.83;20.53;;;;;;;18.71;74.05;100777.84;1628453;86;21075;-71
2022/05/31 08:07:25;;;;;;;18.50;16.60;;;;;;;18.71;73.98;100790.81;1626794;86;22586;-72
2022/05/31 08:09:53;;;;;;;17.63;15.93;;;;;;;18.74;73.88;100793.50;1625792;86;21571;-71
2022/05/31 08:12:20;;;;;;;18.00;16.30;;;;;;;18.72;73.50;100804.64;1611526;87;21108;-72
2022/05/31 08:14:47;;;;;;;16.07;14.47;;;;;;;18.72;73.03;100806.52;1602970;88;21086;-72
2022/05/31 08:17:13;;;;;;;15.70;13.97;;;;;;;18.73;72.97;100814.36;1598764;87;21169;-72
2022/05/31 08:19:40;;;;;;;14.67;13.30;;;;;;;18.74;72.83;100810.53;1613068;87;21122;-71
2022/05/31 08:22:07;;;;;;;13.80;12.50;;;;;;;18.76;72.59;100808.89;1631474;86;21500;-71
2022/05/31 08:24:35;;;;;;;12.97;11.67;;;;;;;18.77;71.97;100807.77;1621801;86;21544;-72
2022/05/31 08:27:02;;;;;;;13.47;12.07;;;;;;;18.81;71.70;100805.25;1619110;87;21149;-72
2022/05/31 08:29:30;;;;;;;12.23;10.97;;;;;;;18.84;71.56;100801.38;1622996;86;21113;-71
2022/05/31 08:31:58;;;;;;;12.23;11.13;;;;;;;18.88;71.12;100806.42;1622741;86;21544;-71
2022/05/31 08:34:32;;;;;;;12.03;10.83;;;;;;;18.94;70.90;100807.11;1622422;87;21893;-72
2022/05/31 08:36:58;;;;;;;11.53;10.33;;;;;;;19.00;70.57;100806.45;1623208;87;21072;-72
2022/05/31 08:39:25;;;;;;;12.27;10.37;;;;;;;19.05;70.09;100811.19;1621953;86;21194;-72
2022/05/31 08:42:12;;;;;;;11.03;9.93;;;;;;;19.08;69.90;100809.75;1622684;87;21852;-71
2022/05/31 08:44:57;;;;;;;10.77;9.50;;;;;;;19.11;69.42;100822.68;1596816;88;21079;-70
2022/05/31 08:47:46;;;;;;;11.43;9.47;;;;;;;19.10;69.10;100825.95;1578929;88;21144;-71
2022/05/31 08:53:30;;;;;;;9.53;8.73;;;;;;;19.08;68.38;100815.17;1574784;88;21096;-71
2022/05/31 08:59:18;;;;;;;9.73;8.77;;;;;;;18.96;67.75;100821.15;1627155;86;21629;-72
2022/05/31 09:01:53;;;;;;;9.17;8.27;;;;;;;18.90;67.72;100820.45;1626220;86;21268;-71
2022/05/31 09:04:25;;;;;;;10.13;8.60;;;;;;;18.84;67.33;100824.38;1627065;86;20941;-72
2022/05/31 09:06:58;;;;;;;8.50;7.60;;;;;;;18.82;67.10;100814.97;1627423;86;21022;-72
2022/05/31 09:09:29;;;;;;;7.80;7.00;;;;;;;18.78;66.70;100822.10;1626052;86;21109;-72
2022/05/31 09:12:09;;;;;;;8.88;6.92;;;;;;;18.75;66.40;100827.56;1626604;86;21511;-71
2022/05/31 09:14:54;;;;;;;10.00;7.23;;;;;;;18.75;66.07;100834.33;1627478;86;22270;-72
2022/05/31 09:17:41;;;;;;;7.87;6.97;;;;;;;18.71;65.83;100824.64;1615531;86;21643;-72
2022/05/31 09:20:30;;;;;;;8.50;7.27;;;;;;;18.68;65.93;100830.66;1627042;87;21130;-72
2022/05/31 09:22:57;;;;;;;8.07;7.27;;;;;;;18.67;65.97;100840.45;1626768;86;20994;-72
2022/05/31 09:25:26;;;;;;;7.93;7.00;;;;;;;18.62;65.86;100842.69;1622852;86;21022;-73
2022/05/31 09:27:53;;;;;;;8.30;7.50;;;;;;;18.56;65.61;100841.75;1626654;86;21262;-72
2022/05/31 09:30:30;;;;;;;8.17;7.00;;;;;;;18.45;65.76;100852.79;1601540;88;21050;-71
2022/05/31 09:33:24;;;;;;;9.13;8.23;;;;;;;18.35;66.15;100850.86;1641627;86;21089;-72
2022/05/31 09:36:26;;;;;;;9.63;7.70;;;;;;;18.18;66.63;100864.98;1632759;86;21062;-72
2022/05/31 09:38:59;;;;;;;7.77;6.97;;;;;;;17.98;67.49;100862.12;1610974;86;21059;-73
2022/05/31 09:41:53;;;;;;;7.20;6.33;;;;;;;17.76;68.40;100864.10;1638629;86;21842;-72
2022/05/31 09:44:31;;;;;;;7.27;5.43;;;;;;;17.58;69.41;100867.92;1598053;88;21048;-71
2022/05/31 09:47:10;;;;;;;5.97;5.30;;;;;;;17.37;69.94;100861.24;1637006;86;21491;-72
2022/05/31 09:49:43;;;;;;;7.30;5.37;;;;;;;17.20;70.31;100867.73;1628873;86;21091;-71
2022/05/31 09:52:14;;;;;;;10.60;5.30;;;;;;;16.64;71.89;100863.35;1610494;88;21527;-72
2022/05/31 09:58:16;;;;;;;6.10;4.90;;;;;;;16.21;73.65;100866.58;1548728;88;21565;-73
2022/05/31 10:01:24;;;;;;;6.13;4.67;;;;;;;15.76;75.25;100876.77;1611520;87;21704;-72
2022/05/31 10:03:55;;;;;;;15.55;4.72;;;;;;;15.76;75.25;100876.77;1612611;87;21084;-71
2022/05/31 10:06:28;;;;;;;5.83;4.30;;;;;;;15.58;75.97;100886.30;1630963;86;21033;-72
2022/05/31 10:08:55;;;;;;;7.67;4.60;;;;;;;15.43;77.15;100893.14;1606928;88;21927;-72
2022/05/31 10:11:44;;;;;;;5.97;5.17;;;;;;;15.29;78.02;100903.74;1630486;86;21681;-72
2022/05/31 10:14:06;;;;;;;;;;;;;;;15.17;78.71;100914.87;1601194;88;21850;-71
2022/05/31 10:16:37;;;;;;;7.20;5.57;;;;;;;15.06;79.48;100917.34;1610543;87;20163;-72
2022/05/31 10:19:12;;;;;;;7.10;5.50;;;;;;;14.99;80.03;100913.61;1629972;86;25354;-70
2022/05/31 10:21:42;;;;;;;7.63;6.10;;;;;;;14.90;81.13;100908.55;1627511;86;22140;-71
2022/05/31 10:24:28;;;;;;;10.57;6.87;;;;;;;14.90;81.13;100908.55;1622066;87;21770;-71
2022/05/31 10:27:21;;;;;;;7.83;6.27;;;;;;;14.88;81.60;100899.97;1607737;88;21879;-70
2022/05/31 10:29:59;;;;;;;9.97;7.47;;;;;;;14.86;82.28;100885.18;1628278;86;21591;-71
2022/05/31 10:33:07;;;;;;;9.30;8.20;;;;;;;14.89;82.54;100876.56;1608881;86;21756;-70
2022/05/31 10:35:42;;;;;;;8.20;7.40;;;;;;;14.91;83.53;100881.13;1595160;88;21782;-70
2022/05/31 10:38:31;;;;;;;9.73;7.83;;;;;;;14.92;83.56;100880.04;1627707;86;21556;-70
2022/05/31 10:41:04;;;;;;;12.43;9.10;;;;;;;14.92;83.56;100880.04;1627279;86;22433;-69
2022/05/31 10:43:42;;;;;;;8.93;7.37;;;;;;;15.03;84.41;100884.81;1627651;87;21604;-70
2022/05/31 10:46:32;;;;;;;10.00;7.93;;;;;;;15.03;84.41;100884.81;1612333;87;21783;-70
2022/05/31 10:49:03;;;;;;;9.57;7.60;;;;;;;15.15;84.33;100903.56;1616592;86;21728;-68
2022/05/31 10:51:45;;;;;;;8.67;7.27;;;;;;;15.20;84.71;100910.80;1626642;86;22032;-69
2022/05/31 10:54:52;;;;;;;8.18;5.47;;;;;;;15.20;84.71;100910.80;1627076;86;21794;-69
2022/05/31 10:57:41;;;;;;;6.17;5.57;;;;;;;15.23;84.42;100909.72;1627530;86;21049;-69
2022/05/31 11:00:26;;;;;;;6.30;5.10;;;;;;;15.21;83.66;100897.63;1627100;85;22044;-69
2022/05/31 11:03:04;;;;;;;6.50;4.33;;;;;;;15.18;82.82;100885.52;1626930;87;21764;-70
2022/05/31 11:06:14;;;;;;;5.73;4.10;;;;;;;15.18;82.82;100885.52;1638906;86;21777;-70
2022/05/31 11:12:25;;;;;;;4.63;4.00;;;;;;;15.19;81.38;100880.94;1630009;86;21848;-69
2022/05/31 11:15:27;;;;;;;4.77;4.00;;;;;;;15.20;80.98;100891.44;1611033;88;22191;-70
2022/05/31 11:18:13;;;;;;;;;;;;;;;15.18;80.71;100890.91;1629959;87;21775;-69
2022/05/31 11:21:17;;;;;;;6.00;4.43;;;;;;;15.19;80.82;100885.78;1628042;86;20149;-69
2022/05/31 11:24:26;;;;;;;5.10;3.95;;;;;;;15.19;80.82;100885.78;1628005;86;21752;-69
2022/05/31 11:27:33;;;;;;;5.40;4.80;;;;;;;15.36;80.70;100875.97;1619505;86;21021;-68
2022/05/31 11:30:35;;;;;;;5.60;4.30;;;;;;;15.58;80.06;100872.03;1617149;86;23038;-69
2022/05/31 11:33:24;;;;;;;5.97;4.57;;;;;;;15.67;79.11;100876.56;1610013;87;21806;-70
2022/05/31 11:36:34;;;;;;;6.17;4.37;;;;;;;15.84;79.23;100882.06;1627284;86;22302;-70
2022/05/31 11:39:37;;;;;;;6.60;3.37;;;;;;;15.99;77.81;100891.88;1627638;86;21846;-69
2022/05/31 11:42:41;;;;;;;4.53;3.30;;;;;;;16.09;76.64;100893.95;1626890;86;21873;-68
2022/05/31 11:45:36;;;;;;;5.40;3.97;;;;;;;16.17;76.05;100891.95;1626735;86;21789;-69
2022/05/31 11:48:57;;;;;;;5.83;3.57;;;;;;;16.33;75.21;100895.84;1627100;86;21854;-69
2022/05/31 11:51:47;;;;;;;4.63;3.50;;;;;;;16.48;74.95;100890.80;1627427;86;21744;-69
2022/05/31 11:54:32;;;;;;;5.40;3.80;;;;;;;16.64;74.55;100882.78;1627401;86;21724;-69
2022/05/31 11:57:38;;;;;;;8.83;4.13;;;;;;;16.77;73.94;100887.49;1627518;86;21787;-69
2022/05/31 12:00:08;;;;;;;5.20;3.43;;;;;;;16.94;73.13;100877.55;1627733;86;21538;-69
2022/05/31 12:02:52;;;;;;;4.87;3.13;;;;;;;17.15;72.10;100874.58;1627706;86;21158;-70
2022/05/31 12:05:36;;;;;;;5.90;3.33;;;;;;;17.29;71.31;100884.87;1620169;86;21935;-70
2022/05/31 12:08:21;;;;;;;5.20;4.00;;;;;;;17.40;71.01;100890.36;1601009;85;21567;-69
2022/05/31 12:10:53;;;;;;;6.63;3.63;;;;;;;17.50;70.64;100886.14;1629799;86;21560;-69
2022/05/31 12:13:21;;;;;;;7.13;4.27;;;;;;;17.59;70.18;100887.08;1600139;88;21585;-69
2022/05/31 12:15:51;;;;;;;5.77;3.87;;;;;;;17.67;70.10;100882.09;1627852;86;21121;-71